Bugt, China
Current Conditions -  °F | °C
As of 5:30 AM on Saturday 29 Nov 2014 (Local Time) from ZYTX Reporting Station
Clear Clear  
Wind Chill: 21°   Ceiling: Unl
Heat Index: 21°   Visibility: 4mi
Dew Point: 18°   Wind: 2mph
Humidity: 86%   Direction: NA
Pressure: 30.15"   Gusts: NA
Location:  42.33°N, 120.7°E
Report Text: ZYTX 282130Z VRB01MPS 6000 NSC M06/M08 Q1021 NOSIG
Loading
Personal Weather Stations






























Interactive Weather Map New forecast layout! Learn more

10-Day Weather Forecast

Advertisements
Track Severe Weather on mobile